createdAt,value
2023-12-13T00:00:19.554Z,6.50
2023-12-13T00:02:48.175Z,6.50
2023-12-13T00:05:18.198Z,6.60
2023-12-13T00:07:46.783Z,6.60
2023-12-13T00:10:15.640Z,6.70
2023-12-13T00:12:44.338Z,6.70
2023-12-13T00:15:13.365Z,6.70
2023-12-13T00:17:42.924Z,6.70
2023-12-13T00:20:11.779Z,6.70
2023-12-13T00:22:41.952Z,6.80
2023-12-13T00:25:10.883Z,6.70
2023-12-13T00:27:39.622Z,6.70
2023-12-13T00:30:10.939Z,6.60
2023-12-13T00:32:39.627Z,6.60
2023-12-13T00:35:08.898Z,6.60
2023-12-13T00:37:37.709Z,6.60
2023-12-13T00:40:09.426Z,6.50
2023-12-13T00:42:38.326Z,6.30
2023-12-13T00:45:08.264Z,6.30
2023-12-13T00:47:37.042Z,6.20
2023-12-13T00:50:07.055Z,6.20
2023-12-13T00:52:35.879Z,6.30
2023-12-13T00:55:06.082Z,6.40
2023-12-13T00:57:36.622Z,6.50
2023-12-13T01:00:06.634Z,6.60
2023-12-13T01:02:35.359Z,6.70
2023-12-13T01:05:05.101Z,6.70
2023-12-13T01:07:33.995Z,6.70
2023-12-13T01:10:03.078Z,6.60
2023-12-13T01:12:31.740Z,6.40
2023-12-13T01:15:01.838Z,6.30
2023-12-13T01:17:30.589Z,6.10
2023-12-13T01:19:59.817Z,5.90
2023-12-13T01:22:29.633Z,5.80
2023-12-13T01:24:58.196Z,5.80
2023-12-13T01:27:26.924Z,5.70
2023-12-13T01:29:55.579Z,5.70
2023-12-13T01:32:25.645Z,5.70
2023-12-13T01:34:54.885Z,5.60
2023-12-13T01:37:23.626Z,5.60
2023-12-13T01:39:57.478Z,5.60
2023-12-13T01:42:26.431Z,5.60
2023-12-13T01:44:55.048Z,5.60
2023-12-13T01:47:25.397Z,5.50
2023-12-13T01:49:54.519Z,5.50
2023-12-13T01:52:23.832Z,5.50
2023-12-13T01:54:53.289Z,5.40
2023-12-13T01:57:22.206Z,5.50
2023-12-13T01:59:51.053Z,5.50
2023-12-13T02:02:19.711Z,5.50
2023-12-13T02:04:50.608Z,5.50
2023-12-13T02:07:19.204Z,5.50
2023-12-13T02:09:47.799Z,5.50
2023-12-13T02:12:16.534Z,5.50
2023-12-13T02:14:45.358Z,5.60
2023-12-13T02:17:14.636Z,5.70
2023-12-13T02:19:43.228Z,5.70
2023-12-13T02:22:13.374Z,5.80
2023-12-13T02:24:45.096Z,5.70
2023-12-13T02:27:13.855Z,5.80
2023-12-13T02:29:42.668Z,5.80
2023-12-13T02:32:11.229Z,5.80
2023-12-13T02:34:39.982Z,5.70
2023-12-13T02:37:08.624Z,5.70
2023-12-13T02:39:38.624Z,5.70
2023-12-13T02:42:07.430Z,5.70
2023-12-13T02:44:36.016Z,5.60
2023-12-13T02:47:05.103Z,5.60
2023-12-13T02:49:33.672Z,5.50
2023-12-13T02:52:02.312Z,5.30
2023-12-13T02:54:30.958Z,5.30
2023-12-13T02:57:01.021Z,5.20
2023-12-13T02:59:29.649Z,5.10
2023-12-13T03:01:58.246Z,5.10
2023-12-13T03:04:26.983Z,5.00
2023-12-13T03:06:55.583Z,5.00
2023-12-13T03:09:24.150Z,4.90
2023-12-13T03:11:53.266Z,4.80
2023-12-13T03:14:23.338Z,4.70
2023-12-13T03:16:51.929Z,4.60
2023-12-13T03:19:20.662Z,4.60
2023-12-13T03:21:49.205Z,4.50
2023-12-13T03:24:17.887Z,4.40
2023-12-13T03:26:46.500Z,4.40
2023-12-13T03:29:15.139Z,4.40
2023-12-13T03:31:45.164Z,4.50
2023-12-13T03:34:15.646Z,4.50
2023-12-13T03:36:44.299Z,4.50
2023-12-13T03:39:13.001Z,4.50
2023-12-13T03:41:41.661Z,4.40
2023-12-13T03:44:10.551Z,4.30
2023-12-13T03:46:41.364Z,4.30
2023-12-13T03:49:11.995Z,4.20
2023-12-13T03:51:44.656Z,4.10
2023-12-13T03:54:13.296Z,4.10
2023-12-13T03:56:41.894Z,4.10
2023-12-13T03:59:10.605Z,4.10
2023-12-13T04:01:39.326Z,4.40
2023-12-13T04:04:08.063Z,4.90
2023-12-13T04:06:38.129Z,5.30
2023-12-13T04:09:06.864Z,5.60
2023-12-13T04:11:35.410Z,5.80
2023-12-13T04:14:04.071Z,5.80
2023-12-13T04:16:33.972Z,5.80
2023-12-13T04:19:02.846Z,5.60
2023-12-13T04:21:31.601Z,5.50
2023-12-13T04:24:03.276Z,5.40
2023-12-13T04:26:32.013Z,5.30
2023-12-13T04:29:00.629Z,5.20
2023-12-13T04:31:29.216Z,5.20
2023-12-13T04:33:58.167Z,5.20
2023-12-13T04:36:27.606Z,5.20
2023-12-13T04:38:56.195Z,5.10
2023-12-13T04:41:26.405Z,5.00
2023-12-13T04:43:55.189Z,4.90
2023-12-13T04:46:23.810Z,4.80
2023-12-13T04:48:52.552Z,4.80
2023-12-13T04:51:21.361Z,4.70
2023-12-13T04:53:49.901Z,4.70
2023-12-13T04:56:18.868Z,4.60
2023-12-13T04:58:48.842Z,4.50
2023-12-13T05:01:17.544Z,4.40
2023-12-13T05:03:46.997Z,4.40
2023-12-13T05:06:16.314Z,4.30
2023-12-13T05:08:44.908Z,4.30
2023-12-13T05:11:13.480Z,4.30
2023-12-13T05:13:42.192Z,4.30
2023-12-13T05:16:12.423Z,4.30
2023-12-13T05:18:41.128Z,4.40
2023-12-13T05:21:09.725Z,4.40
2023-12-13T05:23:38.272Z,4.50
2023-12-13T05:26:07.255Z,4.50
2023-12-13T05:28:36.946Z,4.50
2023-12-13T05:31:05.915Z,4.60
2023-12-13T05:33:36.067Z,4.60
2023-12-13T05:36:05.957Z,4.60
2023-12-13T05:38:34.552Z,4.70
2023-12-13T05:41:03.830Z,4.70
2023-12-13T05:43:32.630Z,4.70
2023-12-13T05:46:01.218Z,4.70
2023-12-13T05:48:29.846Z,4.70
2023-12-13T05:50:59.982Z,4.70
2023-12-13T05:53:28.996Z,4.70
2023-12-13T05:55:57.824Z,4.70
2023-12-13T05:58:27.389Z,4.70
2023-12-13T06:00:56.006Z,4.70
2023-12-13T06:03:24.574Z,4.60
2023-12-13T06:05:53.233Z,4.60
2023-12-13T06:08:23.341Z,4.60
2023-12-13T06:10:52.294Z,4.60
2023-12-13T06:13:21.016Z,4.60
2023-12-13T06:15:49.582Z,4.60
2023-12-13T06:18:18.646Z,4.60
2023-12-13T06:20:47.310Z,4.60
2023-12-13T06:23:15.836Z,4.50
2023-12-13T06:25:45.883Z,4.50
2023-12-13T06:28:14.613Z,4.40
2023-12-13T06:30:43.911Z,4.40
2023-12-13T06:33:12.591Z,4.30
2023-12-13T06:35:41.244Z,4.30
2023-12-13T06:38:11.046Z,4.20
2023-12-13T06:40:39.661Z,4.20
2023-12-13T06:43:09.793Z,4.20
2023-12-13T06:45:39.582Z,4.20
2023-12-13T06:48:08.767Z,4.20
2023-12-13T06:50:37.545Z,4.20
2023-12-13T06:53:06.331Z,4.20
2023-12-13T06:55:34.914Z,4.20
2023-12-13T06:58:03.595Z,4.30
2023-12-13T07:00:33.736Z,4.30
2023-12-13T07:03:03.039Z,4.30
2023-12-13T07:05:31.770Z,4.30
2023-12-13T07:08:00.474Z,4.30
2023-12-13T07:10:29.733Z,4.30
2023-12-13T07:12:58.346Z,4.20
2023-12-13T07:15:26.932Z,4.20
2023-12-13T07:17:56.932Z,4.20
2023-12-13T07:20:25.599Z,4.10
2023-12-13T07:22:54.703Z,4.10
2023-12-13T07:25:23.437Z,4.10
2023-12-13T07:27:52.129Z,4.10
2023-12-13T07:30:20.730Z,4.10
2023-12-13T07:32:49.399Z,4.10
2023-12-13T07:35:19.860Z,4.10
2023-12-13T07:37:50.095Z,4.10
2023-12-13T07:40:18.946Z,4.10
2023-12-13T07:42:48.271Z,4.10
2023-12-13T07:45:17.380Z,4.00
2023-12-13T07:48:00.328Z,4.10
2023-12-13T07:50:38.030Z,4.00
2023-12-13T07:53:06.743Z,4.10
2023-12-13T07:55:35.340Z,4.20
2023-12-13T07:58:04.213Z,4.20
2023-12-13T08:00:32.872Z,4.30
2023-12-13T08:03:01.464Z,4.30
2023-12-13T08:05:30.127Z,4.30
2023-12-13T08:08:00.349Z,4.40
2023-12-13T08:10:28.921Z,4.40
2023-12-13T08:12:57.597Z,4.50
2023-12-13T08:15:26.139Z,4.50
2023-12-13T08:17:54.779Z,4.60
2023-12-13T08:20:24.391Z,4.60
2023-12-13T08:22:53.140Z,4.60
2023-12-13T08:25:23.089Z,4.70
2023-12-13T08:27:51.671Z,4.70
2023-12-13T08:30:20.340Z,4.70
2023-12-13T08:32:48.980Z,4.80
2023-12-13T08:35:18.117Z,4.80
2023-12-13T08:37:46.703Z,4.90
2023-12-13T08:40:15.666Z,5.00
2023-12-13T08:42:46.155Z,5.10
2023-12-13T08:45:15.116Z,5.50
2023-12-13T08:47:43.728Z,5.60
2023-12-13T08:50:12.437Z,5.80
2023-12-13T08:52:41.666Z,5.90
2023-12-13T08:55:10.596Z,6.00
2023-12-13T08:57:39.995Z,6.10
2023-12-13T09:00:12.791Z,6.10
2023-12-13T09:02:41.616Z,6.20
2023-12-13T09:05:10.610Z,6.30
2023-12-13T09:07:39.542Z,6.30
2023-12-13T09:10:10.649Z,6.30
2023-12-13T09:12:39.862Z,6.40
2023-12-13T09:15:10.273Z,6.60
2023-12-13T09:17:40.991Z,6.70
2023-12-13T09:20:16.301Z,6.70
2023-12-13T09:22:46.168Z,6.80
2023-12-13T09:25:15.926Z,7.00
2023-12-13T09:27:45.560Z,7.20
2023-12-13T09:30:16.504Z,7.40
2023-12-13T09:32:47.836Z,7.50
2023-12-13T09:35:17.512Z,7.70
2023-12-13T09:37:46.168Z,7.90
2023-12-13T09:40:19.691Z,8.00
2023-12-13T09:42:49.193Z,8.10
2023-12-13T09:45:22.637Z,8.10
2023-12-13T09:47:54.395Z,8.20
2023-12-13T09:50:24.835Z,8.30
2023-12-13T09:52:54.628Z,8.40
2023-12-13T09:55:23.478Z,8.50
2023-12-13T09:57:52.219Z,8.60
2023-12-13T10:00:22.617Z,8.60
2023-12-13T10:02:51.247Z,8.70
2023-12-13T10:05:21.332Z,8.70
2023-12-13T10:07:51.612Z,8.70
2023-12-13T10:10:20.394Z,8.90
2023-12-13T10:12:53.471Z,9.00
2023-12-13T10:15:23.607Z,9.10
2023-12-13T10:17:52.243Z,9.20
2023-12-13T10:20:20.829Z,9.30
2023-12-13T10:22:49.683Z,9.30
2023-12-13T10:25:21.656Z,9.20
2023-12-13T10:27:50.245Z,9.20
2023-12-13T10:30:20.162Z,9.10
2023-12-13T10:32:50.228Z,9.10
2023-12-13T10:35:20.754Z,9.10
2023-12-13T10:37:51.465Z,9.20
2023-12-13T10:40:22.107Z,9.30
2023-12-13T10:42:55.718Z,9.40
2023-12-13T10:45:26.412Z,9.50
2023-12-13T10:48:02.774Z,9.70
2023-12-13T10:50:32.087Z,9.80
2023-12-13T10:53:03.250Z,9.80
2023-12-13T10:55:32.466Z,9.90
2023-12-13T10:58:01.401Z,9.90
2023-12-13T11:00:30.233Z,10.00
2023-12-13T11:03:05.161Z,10.10
2023-12-13T11:05:34.119Z,10.10
2023-12-13T11:08:02.711Z,10.10
2023-12-13T11:10:31.288Z,10.00
2023-12-13T11:13:00.365Z,10.00
2023-12-13T11:15:30.561Z,10.00
2023-12-13T11:18:05.322Z,10.20
2023-12-13T11:20:34.697Z,10.50
2023-12-13T11:23:08.090Z,10.90
2023-12-13T11:25:37.915Z,11.20
2023-12-13T11:28:06.612Z,11.60
2023-12-13T11:30:37.846Z,12.00
2023-12-13T11:33:14.788Z,12.00
2023-12-13T11:35:43.682Z,11.70
2023-12-13T11:38:12.578Z,11.40
2023-12-13T11:40:42.906Z,11.00
2023-12-13T11:43:14.103Z,10.70
2023-12-13T11:45:51.251Z,10.30
2023-12-13T11:48:21.698Z,10.00
2023-12-13T11:50:52.431Z,9.90
2023-12-13T11:53:22.385Z,9.70
2023-12-13T11:55:50.951Z,9.60
2023-12-13T11:58:19.628Z,9.50
2023-12-13T12:00:48.476Z,9.40
2023-12-13T12:03:17.698Z,9.30
2023-12-13T12:05:48.476Z,9.20
2023-12-13T12:08:17.208Z,9.10
2023-12-13T12:10:47.195Z,9.00
2023-12-13T12:13:16.522Z,9.00
2023-12-13T12:15:45.595Z,9.00
2023-12-13T12:18:14.606Z,9.10
2023-12-13T12:20:43.691Z,9.10
2023-12-13T12:23:13.817Z,9.20
2023-12-13T12:25:43.552Z,9.40
2023-12-13T12:28:12.908Z,9.80
2023-12-13T12:30:44.832Z,10.10
2023-12-13T12:33:14.959Z,10.60
2023-12-13T12:35:43.666Z,10.90
2023-12-13T12:38:15.526Z,10.90
2023-12-13T12:40:44.246Z,10.80
2023-12-13T12:43:14.792Z,10.50
2023-12-13T12:45:44.499Z,10.20
2023-12-13T12:48:13.641Z,10.00
2023-12-13T12:50:42.691Z,9.80
2023-12-13T12:53:12.201Z,9.60
2023-12-13T12:55:42.493Z,9.50
2023-12-13T12:58:11.335Z,9.30
2023-12-13T13:00:40.031Z,9.20
2023-12-13T13:03:08.789Z,9.10
2023-12-13T13:05:37.533Z,9.00
2023-12-13T13:08:06.752Z,8.90
2023-12-13T13:10:35.385Z,8.90
2023-12-13T13:13:06.046Z,9.00
2023-12-13T13:15:34.622Z,9.00
2023-12-13T13:18:03.361Z,9.10
2023-12-13T13:20:32.001Z,9.20
2023-12-13T13:23:00.940Z,9.20
2023-12-13T13:25:29.527Z,9.20
2023-12-13T13:27:58.098Z,9.20
2023-12-13T13:30:28.388Z,9.20
2023-12-13T13:32:57.155Z,9.30
2023-12-13T13:35:26.528Z,9.70
2023-12-13T13:37:55.917Z,10.00
2023-12-13T13:40:25.014Z,10.10
2023-12-13T13:42:54.134Z,10.20
2023-12-13T13:45:22.714Z,10.20
2023-12-13T13:47:52.716Z,10.30
2023-12-13T13:50:21.444Z,10.40
2023-12-13T13:52:50.213Z,10.60
2023-12-13T13:55:19.477Z,10.80
2023-12-13T13:57:49.352Z,11.00
2023-12-13T14:00:21.448Z,11.00
2023-12-13T14:02:54.531Z,11.00
2023-12-13T14:05:23.225Z,11.10
2023-12-13T14:07:52.682Z,11.10
2023-12-13T14:10:21.425Z,11.00
2023-12-13T14:12:50.087Z,10.90
2023-12-13T14:15:18.919Z,10.90
2023-12-13T14:17:47.602Z,10.80
2023-12-13T14:20:17.837Z,10.70
2023-12-13T14:22:46.591Z,10.50
2023-12-13T14:25:15.422Z,10.20
2023-12-13T14:27:44.018Z,9.90
2023-12-13T14:30:13.425Z,9.60
2023-12-13T14:32:42.262Z,9.40
2023-12-13T14:35:13.430Z,9.10
2023-12-13T14:37:44.396Z,8.80
2023-12-13T14:40:16.367Z,8.60
2023-12-13T14:42:46.361Z,8.30
2023-12-13T14:45:15.475Z,8.10
2023-12-13T14:47:44.447Z,7.80
2023-12-13T14:50:13.752Z,7.50
2023-12-13T14:52:44.370Z,7.30
2023-12-13T14:55:13.947Z,7.10
2023-12-13T14:57:42.686Z,6.90
2023-12-13T15:00:13.408Z,6.80
2023-12-13T15:02:43.869Z,6.70
2023-12-13T15:05:13.831Z,6.50
2023-12-13T15:07:45.053Z,6.40
2023-12-13T15:10:14.191Z,6.30
2023-12-13T15:12:43.322Z,6.10
2023-12-13T15:15:12.512Z,6.00
2023-12-13T15:17:41.440Z,5.90
2023-12-13T15:20:11.947Z,5.80
2023-12-13T15:22:40.685Z,5.70
2023-12-13T15:25:14.767Z,5.60
2023-12-13T15:27:45.921Z,5.50
2023-12-13T15:30:14.966Z,5.50
2023-12-13T15:32:45.754Z,5.40
2023-12-13T15:35:14.533Z,5.40
2023-12-13T15:37:43.232Z,5.30
2023-12-13T15:40:14.036Z,5.30
2023-12-13T15:42:43.879Z,5.20
2023-12-13T15:45:16.987Z,5.10
2023-12-13T15:47:45.579Z,5.00
2023-12-13T15:50:14.559Z,5.00
2023-12-13T15:52:44.910Z,4.90
2023-12-13T15:55:17.102Z,4.90
2023-12-13T15:57:45.718Z,4.90
2023-12-13T16:00:15.223Z,4.80
2023-12-13T16:02:44.043Z,4.80
2023-12-13T16:05:14.822Z,4.80
2023-12-13T16:07:46.143Z,4.70
2023-12-13T16:10:20.719Z,4.70
2023-12-13T16:12:50.203Z,4.70
2023-12-13T16:15:19.621Z,4.60
2023-12-13T16:17:49.386Z,4.60
2023-12-13T16:20:18.390Z,4.60
2023-12-13T16:22:47.644Z,4.50
2023-12-13T16:25:18.172Z,4.50
2023-12-13T16:27:46.798Z,4.60
2023-12-13T16:30:16.986Z,4.60
2023-12-13T16:32:45.712Z,4.60
2023-12-13T16:35:16.587Z,4.60
2023-12-13T16:37:46.084Z,4.60
2023-12-13T16:40:14.628Z,4.50
2023-12-13T16:42:47.288Z,4.50
2023-12-13T16:45:17.528Z,4.50
2023-12-13T16:47:46.125Z,4.50
2023-12-13T16:50:14.932Z,4.50
2023-12-13T16:52:43.764Z,4.50
2023-12-13T16:55:12.483Z,4.50
2023-12-13T16:57:41.480Z,4.50
2023-12-13T17:00:12.869Z,4.50
2023-12-13T17:02:44.645Z,4.50
2023-12-13T17:05:15.796Z,4.40
2023-12-13T17:07:45.541Z,4.40
2023-12-13T17:10:14.780Z,4.40
2023-12-13T17:12:43.350Z,4.30
2023-12-13T17:15:13.848Z,4.30
2023-12-13T17:17:42.575Z,4.20
2023-12-13T17:20:12.815Z,4.20
2023-12-13T17:22:42.391Z,4.10
2023-12-13T17:25:12.980Z,4.00
2023-12-13T17:27:41.608Z,4.00
2023-12-13T17:30:11.291Z,3.90
2023-12-13T17:32:41.503Z,3.90
2023-12-13T17:35:10.784Z,3.90
2023-12-13T17:37:39.557Z,4.00
2023-12-13T17:40:11.642Z,4.00
2023-12-13T17:42:42.661Z,4.00
2023-12-13T17:45:12.289Z,4.00
2023-12-13T17:47:42.349Z,4.00
2023-12-13T17:50:11.838Z,4.00
2023-12-13T17:52:40.658Z,3.90
2023-12-13T17:55:09.752Z,3.90
2023-12-13T17:57:39.251Z,3.90
2023-12-13T18:00:09.049Z,3.90
2023-12-13T18:02:37.832Z,4.00
2023-12-13T18:05:10.557Z,4.00
2023-12-13T18:07:39.493Z,4.00
2023-12-13T18:10:08.972Z,4.10
2023-12-13T18:12:37.677Z,4.10
2023-12-13T18:15:07.070Z,4.00
2023-12-13T18:17:35.857Z,4.00
2023-12-13T18:20:05.172Z,4.00
2023-12-13T18:22:35.863Z,3.90
2023-12-13T18:25:04.934Z,4.00
2023-12-13T18:27:33.538Z,4.00
2023-12-13T18:30:02.125Z,4.10
2023-12-13T18:32:30.768Z,4.10
2023-12-13T18:34:59.621Z,4.10
2023-12-13T18:37:31.369Z,4.10
2023-12-13T18:40:01.981Z,4.10
2023-12-13T18:42:30.592Z,4.10
2023-12-13T18:44:59.260Z,4.10
2023-12-13T18:47:28.012Z,4.10
2023-12-13T18:49:57.074Z,4.10
2023-12-13T18:52:25.857Z,4.00
2023-12-13T18:54:54.586Z,4.00
2023-12-13T18:57:24.572Z,4.00
2023-12-13T18:59:53.246Z,4.00
2023-12-13T19:02:22.036Z,4.00
2023-12-13T19:04:50.634Z,3.90
2023-12-13T19:07:20.120Z,4.00
2023-12-13T19:09:48.673Z,4.00
2023-12-13T19:12:17.232Z,4.00
2023-12-13T19:14:47.266Z,4.00
2023-12-13T19:17:16.471Z,4.00
2023-12-13T19:19:45.063Z,4.00
2023-12-13T19:22:13.734Z,4.00
2023-12-13T19:24:43.090Z,3.90
2023-12-13T19:27:11.758Z,3.90
2023-12-13T19:29:40.314Z,3.80
2023-12-13T19:32:10.884Z,3.80
2023-12-13T19:34:39.773Z,3.80
2023-12-13T19:37:09.873Z,3.90
2023-12-13T19:39:38.932Z,3.90
2023-12-13T19:42:07.804Z,3.90
2023-12-13T19:44:36.780Z,3.90
2023-12-13T19:47:06.981Z,3.90
2023-12-13T19:49:37.139Z,4.00
2023-12-13T19:52:06.106Z,4.00
2023-12-13T19:54:35.230Z,4.00
2023-12-13T19:57:03.769Z,4.00
2023-12-13T19:59:32.337Z,4.00
2023-12-13T20:02:02.343Z,4.10
2023-12-13T20:04:31.095Z,4.10
2023-12-13T20:07:01.110Z,4.10
2023-12-13T20:09:29.714Z,4.10
2023-12-13T20:11:58.220Z,4.20
2023-12-13T20:14:27.398Z,4.10
2023-12-13T20:16:56.703Z,4.20
2023-12-13T20:19:25.536Z,4.20
2023-12-13T20:21:54.162Z,4.20
2023-12-13T20:24:24.318Z,4.20
2023-12-13T20:26:53.091Z,4.20
2023-12-13T20:29:21.712Z,4.20
2023-12-13T20:31:50.428Z,4.20
2023-12-13T20:34:19.267Z,4.20
2023-12-13T20:36:48.040Z,4.20
2023-12-13T20:39:16.739Z,4.20
2023-12-13T20:41:46.672Z,4.20
2023-12-13T20:44:15.224Z,4.30
2023-12-13T20:46:44.530Z,4.40
2023-12-13T20:49:13.785Z,4.30
2023-12-13T20:51:42.412Z,4.40
2023-12-13T20:54:11.051Z,4.40
2023-12-13T20:56:39.707Z,4.40
2023-12-13T20:59:09.333Z,4.30
2023-12-13T21:01:38.380Z,4.30
2023-12-13T21:04:07.474Z,4.30
2023-12-13T21:06:36.035Z,4.30
2023-12-13T21:09:04.887Z,4.30
2023-12-13T21:11:35.103Z,4.30
2023-12-13T21:14:05.527Z,4.40
2023-12-13T21:16:35.625Z,4.40
2023-12-13T21:19:04.795Z,4.30
2023-12-13T21:21:33.642Z,4.30
2023-12-13T21:24:10.536Z,4.40
2023-12-13T21:26:45.594Z,4.40
2023-12-13T21:29:14.742Z,4.40
2023-12-13T21:31:44.976Z,4.40
2023-12-13T21:34:13.656Z,4.40
2023-12-13T21:36:45.959Z,4.40
2023-12-13T21:39:14.641Z,4.40
2023-12-13T21:41:43.223Z,4.40
2023-12-13T21:44:12.125Z,4.40
2023-12-13T21:46:40.723Z,4.40
2023-12-13T21:49:10.947Z,4.40
2023-12-13T21:51:39.558Z,4.50
2023-12-13T21:54:08.209Z,4.50
2023-12-13T21:56:36.826Z,4.50
2023-12-13T21:59:05.500Z,4.50
2023-12-13T22:01:34.139Z,4.50
2023-12-13T22:04:04.491Z,4.50
2023-12-13T22:06:35.130Z,4.50
2023-12-13T22:09:03.712Z,4.60
2023-12-13T22:11:32.255Z,4.50
2023-12-13T22:14:00.835Z,4.50
2023-12-13T22:16:29.797Z,4.50
2023-12-13T22:19:11.706Z,4.60
2023-12-13T22:21:48.717Z,4.60
2023-12-13T22:24:17.423Z,4.50
2023-12-13T22:26:45.970Z,4.50
2023-12-13T22:29:14.580Z,4.60
2023-12-13T22:31:43.612Z,4.50
2023-12-13T22:34:13.740Z,4.50
2023-12-13T22:36:43.751Z,4.50
2023-12-13T22:39:12.380Z,4.50
2023-12-13T22:41:42.841Z,4.50
2023-12-13T22:44:11.929Z,4.50
2023-12-13T22:46:40.675Z,4.50
2023-12-13T22:49:09.685Z,4.50
2023-12-13T22:52:17.402Z,4.50
2023-12-13T22:54:28.503Z,4.50
2023-12-13T22:56:57.041Z,4.50
2023-12-13T22:59:26.927Z,4.50
2023-12-13T23:01:58.447Z,4.50
2023-12-13T23:04:28.395Z,4.50
2023-12-13T23:06:57.013Z,4.50
2023-12-13T23:09:27.010Z,4.50
2023-12-13T23:11:55.676Z,4.50
2023-12-13T23:14:24.292Z,4.50
2023-12-13T23:16:52.943Z,4.50
2023-12-13T23:19:21.655Z,4.50
2023-12-13T23:21:50.272Z,4.50
2023-12-13T23:24:18.891Z,4.50
2023-12-13T23:26:48.897Z,4.50
2023-12-13T23:29:18.958Z,4.50
2023-12-13T23:31:47.693Z,4.40
2023-12-13T23:34:16.392Z,4.40
2023-12-13T23:36:45.061Z,4.40
2023-12-13T23:39:13.808Z,4.40
2023-12-13T23:41:42.603Z,4.40
2023-12-13T23:44:12.809Z,4.40
2023-12-13T23:46:41.513Z,4.30
2023-12-13T23:49:11.337Z,4.30
2023-12-13T23:51:39.978Z,4.30
2023-12-13T23:54:08.889Z,4.30
2023-12-13T23:56:37.553Z,4.30
2023-12-13T23:59:06.216Z,4.30
